sensor_id;sensor_type;location;lat;lon;timestamp;temperature;humidity
10316;DHT22;5203;48.976;8.306;2023-11-21T00:00:13;9.20;99.90
10316;DHT22;5203;48.976;8.306;2023-11-21T00:02:41;9.20;99.90
10316;DHT22;5203;48.976;8.306;2023-11-21T00:05:10;9.20;99.90
10316;DHT22;5203;48.976;8.306;2023-11-21T00:07:37;9.20;99.90
10316;DHT22;5203;48.976;8.306;2023-11-21T00:10:03;9.20;99.90
10316;DHT22;5203;48.976;8.306;2023-11-21T00:12:34;9.20;99.90
10316;DHT22;5203;48.976;8.306;2023-11-21T00:14:59;9.20;99.90
10316;DHT22;5203;48.976;8.306;2023-11-21T00:17:25;9.30;99.90
10316;DHT22;5203;48.976;8.306;2023-11-21T00:19:51;9.20;99.90
10316;DHT22;5203;48.976;8.306;2023-11-21T00:22:18;9.30;99.90
10316;DHT22;5203;48.976;8.306;2023-11-21T00:24:43;9.20;99.90
10316;DHT22;5203;48.976;8.306;2023-11-21T00:27:09;9.20;99.90
10316;DHT22;5203;48.976;8.306;2023-11-21T00:29:35;9.20;99.90
10316;DHT22;5203;48.976;8.306;2023-11-21T00:32:01;9.30;99.90
10316;DHT22;5203;48.976;8.306;2023-11-21T00:34:27;9.30;99.90
10316;DHT22;5203;48.976;8.306;2023-11-21T00:36:53;9.20;99.90
10316;DHT22;5203;48.976;8.306;2023-11-21T00:39:18;9.30;99.90
10316;DHT22;5203;48.976;8.306;2023-11-21T00:41:44;9.20;99.90
10316;DHT22;5203;48.976;8.306;2023-11-21T00:44:10;9.20;99.90
10316;DHT22;5203;48.976;8.306;2023-11-21T00:46:36;9.20;99.90
10316;DHT22;5203;48.976;8.306;2023-11-21T00:49:02;9.30;99.90
10316;DHT22;5203;48.976;8.306;2023-11-21T00:51:30;9.20;99.90
10316;DHT22;5203;48.976;8.306;2023-11-21T00:53:56;9.30;99.90
10316;DHT22;5203;48.976;8.306;2023-11-21T00:56:22;9.30;99.90
10316;DHT22;5203;48.976;8.306;2023-11-21T00:58:48;9.30;99.90
10316;DHT22;5203;48.976;8.306;2023-11-21T01:01:21;9.30;99.90
10316;DHT22;5203;48.976;8.306;2023-11-21T01:03:50;9.20;99.90
10316;DHT22;5203;48.976;8.306;2023-11-21T01:06:16;9.20;99.90
10316;DHT22;5203;48.976;8.306;2023-11-21T01:08:44;9.30;99.90
10316;DHT22;5203;48.976;8.306;2023-11-21T01:11:10;9.30;99.90
10316;DHT22;5203;48.976;8.306;2023-11-21T01:13:38;9.30;99.90
10316;DHT22;5203;48.976;8.306;2023-11-21T01:16:05;9.30;99.90
10316;DHT22;5203;48.976;8.306;2023-11-21T01:18:32;9.30;99.90
10316;DHT22;5203;48.976;8.306;2023-11-21T01:20:57;9.30;99.90
10316;DHT22;5203;48.976;8.306;2023-11-21T01:23:23;9.30;99.90
10316;DHT22;5203;48.976;8.306;2023-11-21T01:25:49;9.20;99.90
10316;DHT22;5203;48.976;8.306;2023-11-21T01:28:16;9.30;99.90
10316;DHT22;5203;48.976;8.306;2023-11-21T01:30:42;9.20;99.90
10316;DHT22;5203;48.976;8.306;2023-11-21T01:33:08;9.30;99.90
10316;DHT22;5203;48.976;8.306;2023-11-21T01:35:34;9.20;99.90
10316;DHT22;5203;48.976;8.306;2023-11-21T01:38:00;9.20;99.90
10316;DHT22;5203;48.976;8.306;2023-11-21T01:40:25;9.20;99.90
10316;DHT22;5203;48.976;8.306;2023-11-21T01:42:53;9.10;99.90
10316;DHT22;5203;48.976;8.306;2023-11-21T01:45:19;9.10;99.90
10316;DHT22;5203;48.976;8.306;2023-11-21T01:47:45;9.10;99.90
10316;DHT22;5203;48.976;8.306;2023-11-21T01:50:15;9.10;99.90
10316;DHT22;5203;48.976;8.306;2023-11-21T01:52:45;9.10;99.90
10316;DHT22;5203;48.976;8.306;2023-11-21T01:55:11;9.00;99.90
10316;DHT22;5203;48.976;8.306;2023-11-21T01:57:38;9.00;99.90
10316;DHT22;5203;48.976;8.306;2023-11-21T02:00:04;9.00;99.90
10316;DHT22;5203;48.976;8.306;2023-11-21T02:02:44;9.00;99.90
10316;DHT22;5203;48.976;8.306;2023-11-21T02:05:11;8.90;99.90
10316;DHT22;5203;48.976;8.306;2023-11-21T02:07:41;8.90;99.90
10316;DHT22;5203;48.976;8.306;2023-11-21T02:10:08;8.90;99.90
10316;DHT22;5203;48.976;8.306;2023-11-21T02:12:35;8.80;99.90
10316;DHT22;5203;48.976;8.306;2023-11-21T02:15:04;8.70;99.90
10316;DHT22;5203;48.976;8.306;2023-11-21T02:17:35;8.70;99.90
10316;DHT22;5203;48.976;8.306;2023-11-21T02:20:01;8.70;99.90
10316;DHT22;5203;48.976;8.306;2023-11-21T02:22:31;8.70;99.90
10316;DHT22;5203;48.976;8.306;2023-11-21T02:24:59;8.60;99.90
10316;DHT22;5203;48.976;8.306;2023-11-21T02:27:25;8.60;99.90
10316;DHT22;5203;48.976;8.306;2023-11-21T02:29:52;8.50;99.90
10316;DHT22;5203;48.976;8.306;2023-11-21T02:32:18;8.50;99.90
10316;DHT22;5203;48.976;8.306;2023-11-21T02:34:44;8.50;99.90
10316;DHT22;5203;48.976;8.306;2023-11-21T02:37:10;8.50;99.90
10316;DHT22;5203;48.976;8.306;2023-11-21T02:39:36;8.50;99.90
10316;DHT22;5203;48.976;8.306;2023-11-21T02:42:01;8.40;99.90
10316;DHT22;5203;48.976;8.306;2023-11-21T02:44:27;8.50;99.90
10316;DHT22;5203;48.976;8.306;2023-11-21T02:46:53;8.40;99.90
10316;DHT22;5203;48.976;8.306;2023-11-21T02:49:18;8.50;99.90
10316;DHT22;5203;48.976;8.306;2023-11-21T02:51:44;8.50;99.90
10316;DHT22;5203;48.976;8.306;2023-11-21T02:54:10;8.50;99.90
10316;DHT22;5203;48.976;8.306;2023-11-21T02:56:36;8.50;99.90
10316;DHT22;5203;48.976;8.306;2023-11-21T02:59:03;8.50;99.90
10316;DHT22;5203;48.976;8.306;2023-11-21T03:01:29;8.50;99.90
10316;DHT22;5203;48.976;8.306;2023-11-21T03:03:54;8.50;99.90
10316;DHT22;5203;48.976;8.306;2023-11-21T03:06:21;8.50;99.90
10316;DHT22;5203;48.976;8.306;2023-11-21T03:08:47;8.50;99.90
10316;DHT22;5203;48.976;8.306;2023-11-21T03:11:13;8.50;99.90
10316;DHT22;5203;48.976;8.306;2023-11-21T03:13:40;8.40;99.90
10316;DHT22;5203;48.976;8.306;2023-11-21T03:16:08;8.50;99.90
10316;DHT22;5203;48.976;8.306;2023-11-21T03:18:34;8.50;99.90
10316;DHT22;5203;48.976;8.306;2023-11-21T03:21:00;8.40;99.90
10316;DHT22;5203;48.976;8.306;2023-11-21T03:23:25;8.50;99.90
10316;DHT22;5203;48.976;8.306;2023-11-21T03:25:51;8.50;99.90
10316;DHT22;5203;48.976;8.306;2023-11-21T03:28:16;8.50;99.90
10316;DHT22;5203;48.976;8.306;2023-11-21T03:30:42;8.50;99.90
10316;DHT22;5203;48.976;8.306;2023-11-21T03:33:08;8.50;99.90
10316;DHT22;5203;48.976;8.306;2023-11-21T03:35:33;8.40;99.90
10316;DHT22;5203;48.976;8.306;2023-11-21T03:37:59;8.50;99.90
10316;DHT22;5203;48.976;8.306;2023-11-21T03:40:25;8.40;99.90
10316;DHT22;5203;48.976;8.306;2023-11-21T03:42:50;8.40;99.90
10316;DHT22;5203;48.976;8.306;2023-11-21T03:45:16;8.40;99.90
10316;DHT22;5203;48.976;8.306;2023-11-21T03:47:42;8.40;99.90
10316;DHT22;5203;48.976;8.306;2023-11-21T03:50:08;8.50;99.90
10316;DHT22;5203;48.976;8.306;2023-11-21T03:52:37;8.40;99.90
10316;DHT22;5203;48.976;8.306;2023-11-21T03:55:03;8.40;99.90
10316;DHT22;5203;48.976;8.306;2023-11-21T03:57:28;8.40;99.90
10316;DHT22;5203;48.976;8.306;2023-11-21T03:59:54;8.40;99.90
10316;DHT22;5203;48.976;8.306;2023-11-21T04:02:20;8.40;99.90
10316;DHT22;5203;48.976;8.306;2023-11-21T04:04:45;8.40;99.90
10316;DHT22;5203;48.976;8.306;2023-11-21T04:07:11;8.50;99.90
10316;DHT22;5203;48.976;8.306;2023-11-21T04:09:39;8.50;99.90
10316;DHT22;5203;48.976;8.306;2023-11-21T04:12:05;8.50;99.90
10316;DHT22;5203;48.976;8.306;2023-11-21T04:14:30;8.50;99.90
10316;DHT22;5203;48.976;8.306;2023-11-21T04:16:57;8.50;99.90
10316;DHT22;5203;48.976;8.306;2023-11-21T04:19:22;8.40;99.90
10316;DHT22;5203;48.976;8.306;2023-11-21T04:21:48;8.50;99.90
10316;DHT22;5203;48.976;8.306;2023-11-21T04:24:14;8.50;99.90
10316;DHT22;5203;48.976;8.306;2023-11-21T04:26:40;8.50;99.90
10316;DHT22;5203;48.976;8.306;2023-11-21T04:29:06;8.50;99.90
10316;DHT22;5203;48.976;8.306;2023-11-21T04:31:31;8.40;99.90
10316;DHT22;5203;48.976;8.306;2023-11-21T04:33:57;8.50;99.90
10316;DHT22;5203;48.976;8.306;2023-11-21T04:36:23;8.50;99.90
10316;DHT22;5203;48.976;8.306;2023-11-21T04:38:48;8.50;99.90
10316;DHT22;5203;48.976;8.306;2023-11-21T04:41:14;8.50;99.90
10316;DHT22;5203;48.976;8.306;2023-11-21T04:43:40;8.50;99.90
10316;DHT22;5203;48.976;8.306;2023-11-21T04:46:05;8.50;99.90
10316;DHT22;5203;48.976;8.306;2023-11-21T04:48:32;8.50;99.90
10316;DHT22;5203;48.976;8.306;2023-11-21T04:50:58;8.50;99.90
10316;DHT22;5203;48.976;8.306;2023-11-21T04:53:24;8.60;99.90
10316;DHT22;5203;48.976;8.306;2023-11-21T04:55:49;8.50;99.90
10316;DHT22;5203;48.976;8.306;2023-11-21T04:58:15;8.60;99.90
10316;DHT22;5203;48.976;8.306;2023-11-21T05:00:41;8.60;99.90
10316;DHT22;5203;48.976;8.306;2023-11-21T05:03:07;8.60;99.90
10316;DHT22;5203;48.976;8.306;2023-11-21T05:05:33;8.60;99.90
10316;DHT22;5203;48.976;8.306;2023-11-21T05:07:59;8.60;99.90
10316;DHT22;5203;48.976;8.306;2023-11-21T05:10:25;8.60;99.90
10316;DHT22;5203;48.976;8.306;2023-11-21T05:12:51;8.60;99.90
10316;DHT22;5203;48.976;8.306;2023-11-21T05:15:17;8.60;99.90
10316;DHT22;5203;48.976;8.306;2023-11-21T05:17:43;8.60;99.90
10316;DHT22;5203;48.976;8.306;2023-11-21T05:20:12;8.50;99.90
10316;DHT22;5203;48.976;8.306;2023-11-21T05:22:39;8.50;99.90
10316;DHT22;5203;48.976;8.306;2023-11-21T05:25:09;8.50;99.90
10316;DHT22;5203;48.976;8.306;2023-11-21T05:27:35;8.50;99.90
10316;DHT22;5203;48.976;8.306;2023-11-21T05:30:05;8.50;99.90
10316;DHT22;5203;48.976;8.306;2023-11-21T05:32:31;8.50;99.90
10316;DHT22;5203;48.976;8.306;2023-11-21T05:34:57;8.50;99.90
10316;DHT22;5203;48.976;8.306;2023-11-21T05:37:22;8.50;99.90
10316;DHT22;5203;48.976;8.306;2023-11-21T05:39:49;8.50;99.90
10316;DHT22;5203;48.976;8.306;2023-11-21T05:42:15;8.50;99.90
10316;DHT22;5203;48.976;8.306;2023-11-21T05:44:42;8.50;99.90
10316;DHT22;5203;48.976;8.306;2023-11-21T05:47:08;8.50;99.90
10316;DHT22;5203;48.976;8.306;2023-11-21T05:49:35;8.50;99.90
10316;DHT22;5203;48.976;8.306;2023-11-21T05:52:01;8.50;99.90
10316;DHT22;5203;48.976;8.306;2023-11-21T05:54:26;8.50;99.90
10316;DHT22;5203;48.976;8.306;2023-11-21T05:56:52;8.50;99.90
10316;DHT22;5203;48.976;8.306;2023-11-21T05:59:18;8.50;99.90
10316;DHT22;5203;48.976;8.306;2023-11-21T06:01:45;8.50;99.90
10316;DHT22;5203;48.976;8.306;2023-11-21T06:04:11;8.50;99.90
10316;DHT22;5203;48.976;8.306;2023-11-21T06:06:38;8.50;99.90
10316;DHT22;5203;48.976;8.306;2023-11-21T06:09:04;8.50;99.90
10316;DHT22;5203;48.976;8.306;2023-11-21T06:11:31;8.50;99.90
10316;DHT22;5203;48.976;8.306;2023-11-21T06:13:59;8.50;99.90
10316;DHT22;5203;48.976;8.306;2023-11-21T06:16:28;8.50;99.90
10316;DHT22;5203;48.976;8.306;2023-11-21T06:18:57;8.50;99.90
10316;DHT22;5203;48.976;8.306;2023-11-21T06:21:46;8.50;99.90
10316;DHT22;5203;48.976;8.306;2023-11-21T06:24:12;8.50;99.90
10316;DHT22;5203;48.976;8.306;2023-11-21T06:26:38;8.50;99.90
10316;DHT22;5203;48.976;8.306;2023-11-21T06:29:04;8.50;99.90
10316;DHT22;5203;48.976;8.306;2023-11-21T06:31:30;8.50;99.90
10316;DHT22;5203;48.976;8.306;2023-11-21T06:33:58;8.50;99.90
10316;DHT22;5203;48.976;8.306;2023-11-21T06:36:25;8.50;99.90
10316;DHT22;5203;48.976;8.306;2023-11-21T06:38:52;8.50;99.90
10316;DHT22;5203;48.976;8.306;2023-11-21T06:41:17;8.50;99.90
10316;DHT22;5203;48.976;8.306;2023-11-21T06:43:43;8.50;99.90
10316;DHT22;5203;48.976;8.306;2023-11-21T06:46:12;8.50;99.90
10316;DHT22;5203;48.976;8.306;2023-11-21T06:48:44;8.40;99.90
10316;DHT22;5203;48.976;8.306;2023-11-21T06:51:10;8.50;99.90
10316;DHT22;5203;48.976;8.306;2023-11-21T06:53:37;8.50;99.90
10316;DHT22;5203;48.976;8.306;2023-11-21T06:56:03;8.50;99.90
10316;DHT22;5203;48.976;8.306;2023-11-21T06:58:28;8.50;99.90
10316;DHT22;5203;48.976;8.306;2023-11-21T07:00:54;8.50;99.90
10316;DHT22;5203;48.976;8.306;2023-11-21T07:03:20;8.40;99.90
10316;DHT22;5203;48.976;8.306;2023-11-21T07:05:45;8.50;99.90
10316;DHT22;5203;48.976;8.306;2023-11-21T07:08:13;8.50;99.90
10316;DHT22;5203;48.976;8.306;2023-11-21T07:10:39;8.50;99.90
10316;DHT22;5203;48.976;8.306;2023-11-21T07:13:08;8.50;99.90
10316;DHT22;5203;48.976;8.306;2023-11-21T07:15:38;8.50;99.90
10316;DHT22;5203;48.976;8.306;2023-11-21T07:18:03;8.50;99.90
10316;DHT22;5203;48.976;8.306;2023-11-21T07:20:29;8.50;99.90
10316;DHT22;5203;48.976;8.306;2023-11-21T07:22:55;8.50;99.90
10316;DHT22;5203;48.976;8.306;2023-11-21T07:25:21;8.50;99.90
10316;DHT22;5203;48.976;8.306;2023-11-21T07:27:47;8.60;99.90
10316;DHT22;5203;48.976;8.306;2023-11-21T07:30:13;8.60;99.90
10316;DHT22;5203;48.976;8.306;2023-11-21T07:32:39;8.50;99.90
10316;DHT22;5203;48.976;8.306;2023-11-21T07:35:05;8.50;99.90
10316;DHT22;5203;48.976;8.306;2023-11-21T07:37:32;8.60;99.90
10316;DHT22;5203;48.976;8.306;2023-11-21T07:39:58;8.60;99.90
10316;DHT22;5203;48.976;8.306;2023-11-21T07:42:24;8.50;99.90
10316;DHT22;5203;48.976;8.306;2023-11-21T07:44:52;8.50;99.90
10316;DHT22;5203;48.976;8.306;2023-11-21T07:47:17;8.60;99.90
10316;DHT22;5203;48.976;8.306;2023-11-21T07:49:43;8.60;99.90
10316;DHT22;5203;48.976;8.306;2023-11-21T07:52:10;8.60;99.90
10316;DHT22;5203;48.976;8.306;2023-11-21T07:54:36;8.60;99.90
10316;DHT22;5203;48.976;8.306;2023-11-21T07:57:02;8.60;99.90
10316;DHT22;5203;48.976;8.306;2023-11-21T07:59:29;8.60;99.90
10316;DHT22;5203;48.976;8.306;2023-11-21T08:01:55;8.60;99.90
10316;DHT22;5203;48.976;8.306;2023-11-21T08:04:21;8.70;99.90
10316;DHT22;5203;48.976;8.306;2023-11-21T08:06:46;8.60;99.90
10316;DHT22;5203;48.976;8.306;2023-11-21T08:09:21;8.60;99.90
10316;DHT22;5203;48.976;8.306;2023-11-21T08:11:49;8.70;99.90
10316;DHT22;5203;48.976;8.306;2023-11-21T08:14:18;8.60;99.90
10316;DHT22;5203;48.976;8.306;2023-11-21T08:16:44;8.60;99.90
10316;DHT22;5203;48.976;8.306;2023-11-21T08:19:10;8.70;99.90
10316;DHT22;5203;48.976;8.306;2023-11-21T08:21:36;8.70;99.90
10316;DHT22;5203;48.976;8.306;2023-11-21T08:24:06;8.70;99.90
10316;DHT22;5203;48.976;8.306;2023-11-21T08:26:37;8.70;99.90
10316;DHT22;5203;48.976;8.306;2023-11-21T08:29:03;8.70;99.90
10316;DHT22;5203;48.976;8.306;2023-11-21T08:31:29;8.70;99.90
10316;DHT22;5203;48.976;8.306;2023-11-21T08:33:55;8.70;99.90
10316;DHT22;5203;48.976;8.306;2023-11-21T08:36:24;8.70;99.90
10316;DHT22;5203;48.976;8.306;2023-11-21T08:38:58;8.80;99.90
10316;DHT22;5203;48.976;8.306;2023-11-21T08:41:24;8.80;99.90
10316;DHT22;5203;48.976;8.306;2023-11-21T08:43:50;8.90;99.90
10316;DHT22;5203;48.976;8.306;2023-11-21T08:46:16;8.90;99.90
10316;DHT22;5203;48.976;8.306;2023-11-21T08:48:45;8.90;99.90
10316;DHT22;5203;48.976;8.306;2023-11-21T08:51:11;8.90;99.90
10316;DHT22;5203;48.976;8.306;2023-11-21T08:53:37;9.00;99.90
10316;DHT22;5203;48.976;8.306;2023-11-21T08:56:03;9.00;99.90
10316;DHT22;5203;48.976;8.306;2023-11-21T08:58:30;9.10;99.90
10316;DHT22;5203;48.976;8.306;2023-11-21T09:00:57;9.10;99.90
10316;DHT22;5203;48.976;8.306;2023-11-21T09:03:23;9.10;99.90
10316;DHT22;5203;48.976;8.306;2023-11-21T09:05:50;9.20;99.90
10316;DHT22;5203;48.976;8.306;2023-11-21T09:08:18;9.20;99.90
10316;DHT22;5203;48.976;8.306;2023-11-21T09:10:46;9.30;99.90
10316;DHT22;5203;48.976;8.306;2023-11-21T09:13:15;9.30;99.90
10316;DHT22;5203;48.976;8.306;2023-11-21T09:15:45;9.30;99.90
10316;DHT22;5203;48.976;8.306;2023-11-21T09:18:14;9.20;99.90
10316;DHT22;5203;48.976;8.306;2023-11-21T09:20:50;9.30;99.90
10316;DHT22;5203;48.976;8.306;2023-11-21T09:23:16;9.30;99.90
10316;DHT22;5203;48.976;8.306;2023-11-21T09:25:41;9.40;99.90
10316;DHT22;5203;48.976;8.306;2023-11-21T09:28:19;9.40;99.90
10316;DHT22;5203;48.976;8.306;2023-11-21T09:31:03;9.40;99.90
10316;DHT22;5203;48.976;8.306;2023-11-21T09:33:33;9.40;99.90
10316;DHT22;5203;48.976;8.306;2023-11-21T09:36:02;9.30;99.90
10316;DHT22;5203;48.976;8.306;2023-11-21T09:38:30;9.40;99.90
10316;DHT22;5203;48.976;8.306;2023-11-21T09:40:56;9.40;99.90
10316;DHT22;5203;48.976;8.306;2023-11-21T09:43:25;9.40;99.90
10316;DHT22;5203;48.976;8.306;2023-11-21T09:46:00;9.40;99.90
10316;DHT22;5203;48.976;8.306;2023-11-21T09:48:29;9.40;99.90
10316;DHT22;5203;48.976;8.306;2023-11-21T09:50:56;9.40;99.90
10316;DHT22;5203;48.976;8.306;2023-11-21T09:53:22;9.50;99.90
10316;DHT22;5203;48.976;8.306;2023-11-21T09:55:54;9.40;99.90
10316;DHT22;5203;48.976;8.306;2023-11-21T09:58:20;9.40;99.90
10316;DHT22;5203;48.976;8.306;2023-11-21T10:00:59;9.40;99.90
10316;DHT22;5203;48.976;8.306;2023-11-21T10:03:25;9.50;99.90
10316;DHT22;5203;48.976;8.306;2023-11-21T10:05:51;9.40;99.90
10316;DHT22;5203;48.976;8.306;2023-11-21T10:08:18;9.40;99.90
10316;DHT22;5203;48.976;8.306;2023-11-21T10:10:46;9.30;99.90
10316;DHT22;5203;48.976;8.306;2023-11-21T10:13:44;9.30;99.90
10316;DHT22;5203;48.976;8.306;2023-11-21T10:16:15;9.40;99.90
10316;DHT22;5203;48.976;8.306;2023-11-21T10:18:44;9.30;99.90
10316;DHT22;5203;48.976;8.306;2023-11-21T10:21:11;9.30;99.90
10316;DHT22;5203;48.976;8.306;2023-11-21T10:23:37;9.30;99.90
10316;DHT22;5203;48.976;8.306;2023-11-21T10:26:04;9.30;99.90
10316;DHT22;5203;48.976;8.306;2023-11-21T10:28:35;9.30;99.90
10316;DHT22;5203;48.976;8.306;2023-11-21T10:31:08;9.30;99.90
10316;DHT22;5203;48.976;8.306;2023-11-21T10:33:34;9.30;99.90
10316;DHT22;5203;48.976;8.306;2023-11-21T10:36:01;9.20;99.90
10316;DHT22;5203;48.976;8.306;2023-11-21T10:38:35;9.20;99.90
10316;DHT22;5203;48.976;8.306;2023-11-21T10:41:11;9.20;99.90
10316;DHT22;5203;48.976;8.306;2023-11-21T10:43:40;9.30;99.90
10316;DHT22;5203;48.976;8.306;2023-11-21T10:46:07;9.30;99.90
10316;DHT22;5203;48.976;8.306;2023-11-21T10:48:44;9.30;99.90
10316;DHT22;5203;48.976;8.306;2023-11-21T10:51:09;9.30;99.90
10316;DHT22;5203;48.976;8.306;2023-11-21T10:53:41;9.30;99.90
10316;DHT22;5203;48.976;8.306;2023-11-21T10:56:09;9.30;99.90
10316;DHT22;5203;48.976;8.306;2023-11-21T10:58:43;9.20;99.90
10316;DHT22;5203;48.976;8.306;2023-11-21T11:01:09;9.20;99.90
10316;DHT22;5203;48.976;8.306;2023-11-21T11:03:42;9.30;99.90
10316;DHT22;5203;48.976;8.306;2023-11-21T11:06:12;9.30;99.90
10316;DHT22;5203;48.976;8.306;2023-11-21T11:08:39;9.30;99.90
10316;DHT22;5203;48.976;8.306;2023-11-21T11:11:05;9.30;99.90
10316;DHT22;5203;48.976;8.306;2023-11-21T11:13:31;9.20;99.90
10316;DHT22;5203;48.976;8.306;2023-11-21T11:15:59;9.20;99.90
10316;DHT22;5203;48.976;8.306;2023-11-21T11:18:30;9.10;99.90
10316;DHT22;5203;48.976;8.306;2023-11-21T11:21:27;9.10;99.90
10316;DHT22;5203;48.976;8.306;2023-11-21T11:27:22;9.10;99.90
10316;DHT22;5203;48.976;8.306;2023-11-21T11:32:56;9.10;99.90
10316;DHT22;5203;48.976;8.306;2023-11-21T11:35:38;9.00;99.90
10316;DHT22;5203;48.976;8.306;2023-11-21T11:38:07;9.10;99.90
10316;DHT22;5203;48.976;8.306;2023-11-21T11:40:46;9.20;99.90
10316;DHT22;5203;48.976;8.306;2023-11-21T11:43:27;9.20;99.90
10316;DHT22;5203;48.976;8.306;2023-11-21T11:45:57;9.20;99.90
10316;DHT22;5203;48.976;8.306;2023-11-21T11:48:29;9.20;99.90
10316;DHT22;5203;48.976;8.306;2023-11-21T11:51:12;9.20;99.90
10316;DHT22;5203;48.976;8.306;2023-11-21T11:53:47;9.20;99.90
10316;DHT22;5203;48.976;8.306;2023-11-21T11:58:55;9.20;99.90
10316;DHT22;5203;48.976;8.306;2023-11-21T12:01:34;9.20;99.90
10316;DHT22;5203;48.976;8.306;2023-11-21T12:06:51;9.20;99.90
10316;DHT22;5203;48.976;8.306;2023-11-21T12:09:24;9.30;99.90
10316;DHT22;5203;48.976;8.306;2023-11-21T12:11:52;9.30;99.90
10316;DHT22;5203;48.976;8.306;2023-11-21T12:14:20;9.20;99.90
10316;DHT22;5203;48.976;8.306;2023-11-21T12:16:46;9.20;99.90
10316;DHT22;5203;48.976;8.306;2023-11-21T12:19:13;9.20;99.90
10316;DHT22;5203;48.976;8.306;2023-11-21T12:24:41;9.20;99.90
10316;DHT22;5203;48.976;8.306;2023-11-21T12:27:07;9.20;99.90
10316;DHT22;5203;48.976;8.306;2023-11-21T12:29:33;9.20;99.90
10316;DHT22;5203;48.976;8.306;2023-11-21T12:32:09;9.20;99.90
10316;DHT22;5203;48.976;8.306;2023-11-21T12:34:53;9.20;99.90
10316;DHT22;5203;48.976;8.306;2023-11-21T12:37:28;9.20;99.90
10316;DHT22;5203;48.976;8.306;2023-11-21T12:40:10;9.30;99.90
10316;DHT22;5203;48.976;8.306;2023-11-21T12:43:08;9.40;99.90
10316;DHT22;5203;48.976;8.306;2023-11-21T12:45:41;9.40;99.90
10316;DHT22;5203;48.976;8.306;2023-11-21T12:48:07;9.40;99.90
10316;DHT22;5203;48.976;8.306;2023-11-21T12:50:35;9.40;99.90
10316;DHT22;5203;48.976;8.306;2023-11-21T12:53:06;9.40;99.90
10316;DHT22;5203;48.976;8.306;2023-11-21T12:55:36;9.50;99.90
10316;DHT22;5203;48.976;8.306;2023-11-21T12:58:09;9.50;99.90
10316;DHT22;5203;48.976;8.306;2023-11-21T13:00:46;9.50;99.90
10316;DHT22;5203;48.976;8.306;2023-11-21T13:03:29;9.50;99.90
10316;DHT22;5203;48.976;8.306;2023-11-21T13:05:58;9.60;99.90
10316;DHT22;5203;48.976;8.306;2023-11-21T13:08:28;9.70;99.90
10316;DHT22;5203;48.976;8.306;2023-11-21T13:10:56;9.60;99.90
10316;DHT22;5203;48.976;8.306;2023-11-21T13:13:23;9.70;99.90
10316;DHT22;5203;48.976;8.306;2023-11-21T13:15:54;9.70;99.90
10316;DHT22;5203;48.976;8.306;2023-11-21T13:18:24;9.70;99.90
10316;DHT22;5203;48.976;8.306;2023-11-21T13:20:56;9.70;99.90
10316;DHT22;5203;48.976;8.306;2023-11-21T13:23:23;9.80;99.90
10316;DHT22;5203;48.976;8.306;2023-11-21T13:25:49;9.90;99.90
10316;DHT22;5203;48.976;8.306;2023-11-21T13:28:15;9.90;99.90
10316;DHT22;5203;48.976;8.306;2023-11-21T13:30:43;9.90;99.90
10316;DHT22;5203;48.976;8.306;2023-11-21T13:33:16;9.90;99.90
10316;DHT22;5203;48.976;8.306;2023-11-21T13:35:49;10.00;99.90
10316;DHT22;5203;48.976;8.306;2023-11-21T13:38:18;10.10;99.90
10316;DHT22;5203;48.976;8.306;2023-11-21T13:40:57;10.10;99.90
10316;DHT22;5203;48.976;8.306;2023-11-21T13:43:26;10.00;99.90
10316;DHT22;5203;48.976;8.306;2023-11-21T13:45:54;10.00;99.90
10316;DHT22;5203;48.976;8.306;2023-11-21T13:48:52;10.00;99.90
10316;DHT22;5203;48.976;8.306;2023-11-21T13:51:22;10.00;99.90
10316;DHT22;5203;48.976;8.306;2023-11-21T13:53:56;10.00;99.90
10316;DHT22;5203;48.976;8.306;2023-11-21T13:56:22;10.00;99.90
10316;DHT22;5203;48.976;8.306;2023-11-21T13:58:50;10.10;99.90
10316;DHT22;5203;48.976;8.306;2023-11-21T14:01:24;10.10;99.90
10316;DHT22;5203;48.976;8.306;2023-11-21T14:03:59;10.00;99.90
10316;DHT22;5203;48.976;8.306;2023-11-21T14:06:46;10.10;99.90
10316;DHT22;5203;48.976;8.306;2023-11-21T14:09:17;10.10;99.90
10316;DHT22;5203;48.976;8.306;2023-11-21T14:12:04;10.20;99.90
10316;DHT22;5203;48.976;8.306;2023-11-21T14:14:32;10.30;99.90
10316;DHT22;5203;48.976;8.306;2023-11-21T14:16:57;10.30;99.90
10316;DHT22;5203;48.976;8.306;2023-11-21T14:19:24;10.30;99.90
10316;DHT22;5203;48.976;8.306;2023-11-21T14:21:56;10.20;99.90
10316;DHT22;5203;48.976;8.306;2023-11-21T14:24:34;10.20;99.90
10316;DHT22;5203;48.976;8.306;2023-11-21T14:26:59;10.30;99.90
10316;DHT22;5203;48.976;8.306;2023-11-21T14:29:25;10.20;99.90
10316;DHT22;5203;48.976;8.306;2023-11-21T14:31:58;10.20;99.90
10316;DHT22;5203;48.976;8.306;2023-11-21T14:34:24;10.20;99.90
10316;DHT22;5203;48.976;8.306;2023-11-21T14:36:54;10.30;99.90
10316;DHT22;5203;48.976;8.306;2023-11-21T14:39:23;10.30;99.90
10316;DHT22;5203;48.976;8.306;2023-11-21T14:41:52;10.30;99.90
10316;DHT22;5203;48.976;8.306;2023-11-21T14:44:18;10.40;99.90
10316;DHT22;5203;48.976;8.306;2023-11-21T14:46:45;10.40;99.90
10316;DHT22;5203;48.976;8.306;2023-11-21T14:49:14;10.60;99.90
10316;DHT22;5203;48.976;8.306;2023-11-21T14:51:51;10.50;99.90
10316;DHT22;5203;48.976;8.306;2023-11-21T14:54:28;10.60;99.90
10316;DHT22;5203;48.976;8.306;2023-11-21T14:57:10;10.60;99.90
10316;DHT22;5203;48.976;8.306;2023-11-21T14:59:45;10.70;99.90
10316;DHT22;5203;48.976;8.306;2023-11-21T15:02:23;10.60;99.90
10316;DHT22;5203;48.976;8.306;2023-11-21T15:05:09;10.60;99.90
10316;DHT22;5203;48.976;8.306;2023-11-21T15:07:40;10.60;99.90
10316;DHT22;5203;48.976;8.306;2023-11-21T15:10:07;10.60;99.90
10316;DHT22;5203;48.976;8.306;2023-11-21T15:12:40;10.60;99.90
10316;DHT22;5203;48.976;8.306;2023-11-21T15:15:08;10.50;99.90
10316;DHT22;5203;48.976;8.306;2023-11-21T15:17:36;10.50;99.90
10316;DHT22;5203;48.976;8.306;2023-11-21T15:20:03;10.40;99.90
10316;DHT22;5203;48.976;8.306;2023-11-21T15:22:32;10.40;99.90
10316;DHT22;5203;48.976;8.306;2023-11-21T15:24:58;10.40;99.90
10316;DHT22;5203;48.976;8.306;2023-11-21T15:27:25;10.30;99.90
10316;DHT22;5203;48.976;8.306;2023-11-21T15:29:52;10.20;99.90
10316;DHT22;5203;48.976;8.306;2023-11-21T15:32:19;10.20;99.90
10316;DHT22;5203;48.976;8.306;2023-11-21T15:34:44;10.10;99.90
10316;DHT22;5203;48.976;8.306;2023-11-21T15:37:12;10.10;99.90
10316;DHT22;5203;48.976;8.306;2023-11-21T15:39:39;10.00;99.90
10316;DHT22;5203;48.976;8.306;2023-11-21T15:42:05;9.90;99.90
10316;DHT22;5203;48.976;8.306;2023-11-21T15:44:33;9.90;99.90
10316;DHT22;5203;48.976;8.306;2023-11-21T15:46:59;9.90;99.90
10316;DHT22;5203;48.976;8.306;2023-11-21T15:49:25;9.80;99.90
10316;DHT22;5203;48.976;8.306;2023-11-21T15:51:53;9.70;99.90
10316;DHT22;5203;48.976;8.306;2023-11-21T15:54:19;9.60;99.90
10316;DHT22;5203;48.976;8.306;2023-11-21T15:56:46;9.60;99.90
10316;DHT22;5203;48.976;8.306;2023-11-21T15:59:12;9.60;99.90
10316;DHT22;5203;48.976;8.306;2023-11-21T16:01:39;9.60;99.90
10316;DHT22;5203;48.976;8.306;2023-11-21T16:04:12;9.50;99.90
10316;DHT22;5203;48.976;8.306;2023-11-21T16:06:42;9.50;99.90
10316;DHT22;5203;48.976;8.306;2023-11-21T16:09:08;9.50;99.90
10316;DHT22;5203;48.976;8.306;2023-11-21T16:12:02;9.40;99.90
10316;DHT22;5203;48.976;8.306;2023-11-21T16:14:29;9.40;99.90
10316;DHT22;5203;48.976;8.306;2023-11-21T16:17:07;9.30;99.90
10316;DHT22;5203;48.976;8.306;2023-11-21T16:19:33;9.20;99.90
10316;DHT22;5203;48.976;8.306;2023-11-21T16:21:59;9.20;99.90